createdAt,value
2018-09-02T00:02:20.167Z,24.50
2018-09-02T00:04:49.532Z,25.20
2018-09-02T00:07:18.988Z,23.90
2018-09-02T00:09:48.165Z,23.73
2018-09-02T00:12:17.599Z,23.37
2018-09-02T00:14:46.735Z,24.57
2018-09-02T00:17:16.033Z,25.30
2018-09-02T00:19:45.137Z,24.57
2018-09-02T00:22:14.445Z,24.27
2018-09-02T00:24:43.575Z,25.63
2018-09-02T00:27:12.768Z,26.97
2018-09-02T00:29:42.036Z,25.10
2018-09-02T00:32:11.413Z,25.13
2018-09-02T00:34:40.545Z,24.63
2018-09-02T00:37:09.969Z,23.37
2018-09-02T00:39:39.488Z,22.83
2018-09-02T00:42:08.763Z,22.27
2018-09-02T00:44:37.899Z,23.47
2018-09-02T00:47:08.320Z,22.93
2018-09-02T00:49:37.680Z,23.07
2018-09-02T00:52:06.775Z,23.20
2018-09-02T00:54:36.227Z,23.10
2018-09-02T00:57:05.954Z,23.10
2018-09-02T00:59:35.156Z,22.23
2018-09-02T01:02:04.831Z,22.67
2018-09-02T01:04:34.095Z,22.20
2018-09-02T01:07:03.283Z,24.40
2018-09-02T01:09:32.730Z,22.80
2018-09-02T01:12:02.209Z,24.30
2018-09-02T01:14:31.548Z,23.23
2018-09-02T01:17:01.035Z,24.47
2018-09-02T01:19:30.612Z,25.00
2018-09-02T01:21:59.562Z,25.33
2018-09-02T01:24:28.751Z,27.10
2018-09-02T01:26:57.924Z,27.17
2018-09-02T01:29:27.086Z,26.57
2018-09-02T01:31:56.273Z,24.50
2018-09-02T01:34:25.490Z,26.17
2018-09-02T01:36:54.634Z,23.90
2018-09-02T01:39:23.904Z,23.57
2018-09-02T01:41:53.010Z,23.97
2018-09-02T01:44:22.259Z,22.57
2018-09-02T01:46:51.569Z,24.30
2018-09-02T01:49:20.771Z,24.20
2018-09-02T01:51:49.952Z,23.03
2018-09-02T01:54:19.370Z,21.97
2018-09-02T01:56:48.405Z,22.67
2018-09-02T01:59:17.803Z,21.93
2018-09-02T02:01:46.987Z,21.43
2018-09-02T02:04:16.677Z,22.17
2018-09-02T02:06:45.979Z,22.00
2018-09-02T02:09:15.136Z,22.40
2018-09-02T02:11:44.806Z,22.00
2018-09-02T02:14:14.377Z,22.90
2018-09-02T02:16:43.476Z,21.93
2018-09-02T02:19:12.669Z,21.80
2018-09-02T02:21:41.839Z,22.50
2018-09-02T02:24:11.139Z,22.37
2018-09-02T02:26:40.280Z,23.47
2018-09-02T02:29:09.479Z,23.53
2018-09-02T02:31:38.582Z,22.87
2018-09-02T02:34:07.713Z,24.17
2018-09-02T02:36:37.448Z,24.30
2018-09-02T02:39:09.002Z,24.13
2018-09-02T02:41:38.191Z,22.97
2018-09-02T02:44:07.577Z,24.27
2018-09-02T02:46:36.683Z,24.40
2018-09-02T02:49:06.212Z,25.47
2018-09-02T02:51:35.349Z,25.50
2018-09-02T02:54:04.540Z,24.80
2018-09-02T02:56:33.653Z,25.93
2018-09-02T02:59:03.084Z,27.43
2018-09-02T03:01:32.269Z,26.87
2018-09-02T03:04:01.541Z,25.40
2018-09-02T03:06:30.631Z,27.43
2018-09-02T03:08:59.905Z,25.83
2018-09-02T03:11:28.949Z,28.67
2018-09-02T03:13:58.343Z,26.03
2018-09-02T03:16:27.460Z,27.83
2018-09-02T03:18:56.873Z,27.57
2018-09-02T03:21:26.164Z,28.10
2018-09-02T03:23:55.362Z,28.53
2018-09-02T03:26:24.770Z,29.50
2018-09-02T03:28:53.816Z,28.20
2018-09-02T03:31:23.431Z,29.73
2018-09-02T03:33:52.576Z,28.37
2018-09-02T03:36:21.756Z,27.47
2018-09-02T03:38:50.954Z,27.47
2018-09-02T03:41:20.249Z,27.33
2018-09-02T03:43:49.528Z,28.43
2018-09-02T03:46:18.844Z,27.17
2018-09-02T03:48:48.084Z,28.93
2018-09-02T03:51:17.214Z,28.03
2018-09-02T03:53:46.530Z,26.90
2018-09-02T03:56:16.026Z,28.10
2018-09-02T03:58:45.609Z,28.47
2018-09-02T04:01:14.931Z,29.10
2018-09-02T04:03:44.281Z,27.67
2018-09-02T04:06:13.554Z,30.30
2018-09-02T04:08:42.735Z,31.10
2018-09-02T04:11:12.090Z,30.57
2018-09-02T04:13:41.419Z,30.87
2018-09-02T04:16:10.648Z,31.60
2018-09-02T04:18:39.854Z,27.73
2018-09-02T04:21:09.002Z,30.00
2018-09-02T04:23:38.283Z,29.53
2018-09-02T04:26:07.392Z,28.27
2018-09-02T04:28:36.617Z,28.43
2018-09-02T04:31:05.827Z,31.07
2018-09-02T04:33:35.036Z,34.37
2018-09-02T04:36:04.177Z,31.87
2018-09-02T04:38:33.359Z,33.23
2018-09-02T04:41:02.511Z,32.93
2018-09-02T04:43:31.670Z,48.63
2018-09-02T04:46:00.997Z,42.60
2018-09-02T04:48:30.491Z,37.03
2018-09-02T04:50:59.605Z,34.97
2018-09-02T04:53:28.847Z,36.43
2018-09-02T04:55:58.326Z,35.03
2018-09-02T04:58:27.593Z,34.07
2018-09-02T05:00:56.939Z,33.13
2018-09-02T05:03:26.204Z,35.07
2018-09-02T05:05:55.359Z,33.10
2018-09-02T05:08:24.372Z,30.90
2018-09-02T05:10:53.819Z,32.13
2018-09-02T05:13:22.844Z,31.03
2018-09-02T05:15:53.374Z,32.47
2018-09-02T05:18:23.536Z,32.87
2018-09-02T05:20:52.736Z,32.20
2018-09-02T05:23:22.073Z,31.03
2018-09-02T05:25:52.161Z,30.03
2018-09-02T05:28:21.457Z,29.27
2018-09-02T05:30:50.895Z,29.10
2018-09-02T05:33:19.900Z,30.63
2018-09-02T05:35:49.012Z,28.33
2018-09-02T05:38:18.286Z,29.67
2018-09-02T05:40:47.380Z,29.07
2018-09-02T05:43:16.764Z,29.63
2018-09-02T05:45:46.193Z,29.73
2018-09-02T05:48:15.432Z,28.77
2018-09-02T05:50:44.860Z,28.83
2018-09-02T05:53:14.444Z,28.27
2018-09-02T05:55:43.435Z,28.30
2018-09-02T05:58:12.555Z,27.83
2018-09-02T06:00:41.645Z,28.73
2018-09-02T06:03:10.941Z,28.07
2018-09-02T06:05:40.042Z,27.83
2018-09-02T06:08:09.504Z,28.80
2018-09-02T06:10:38.860Z,28.23
2018-09-02T06:13:09.063Z,28.47
2018-09-02T06:15:38.297Z,26.07
2018-09-02T06:18:07.763Z,25.93
2018-09-02T06:20:37.364Z,26.03
2018-09-02T06:23:06.691Z,27.27
2018-09-02T06:25:35.816Z,31.47
2018-09-02T06:28:05.077Z,27.07
2018-09-02T06:30:34.824Z,28.67
2018-09-02T06:33:05.011Z,28.07
2018-09-02T06:35:34.289Z,27.60
2018-09-02T06:38:03.321Z,24.47
2018-09-02T06:40:32.615Z,24.77
2018-09-02T06:43:02.150Z,26.03
2018-09-02T06:45:31.885Z,27.30
2018-09-02T06:48:01.087Z,26.70
2018-09-02T06:50:30.418Z,26.67
2018-09-02T06:53:00.692Z,26.03
2018-09-02T06:55:29.910Z,29.77
2018-09-02T06:57:59.143Z,27.37
2018-09-02T07:00:28.662Z,28.33
2018-09-02T07:02:59.551Z,25.30
2018-09-02T07:05:28.832Z,25.00
2018-09-02T07:07:58.227Z,24.30
2018-09-02T07:10:28.210Z,24.83
2018-09-02T07:12:57.343Z,24.93
2018-09-02T07:15:26.866Z,25.13
2018-09-02T07:17:56.420Z,23.90
2018-09-02T07:20:26.112Z,25.47
2018-09-02T07:22:55.491Z,25.10
2018-09-02T07:25:24.658Z,23.50
2018-09-02T07:27:53.980Z,23.32
2018-09-02T07:30:23.617Z,23.70
2018-09-02T07:32:53.658Z,22.48
2018-09-02T07:35:22.975Z,23.83
2018-09-02T07:37:52.620Z,23.43
2018-09-02T07:40:23.802Z,21.97
2018-09-02T07:42:53.669Z,21.20
2018-09-02T07:45:23.486Z,21.13
2018-09-02T07:47:52.628Z,22.17
2018-09-02T07:50:21.984Z,23.18
2018-09-02T07:52:51.156Z,21.82
2018-09-02T07:55:20.656Z,22.67
2018-09-02T07:57:50.301Z,20.37
2018-09-02T08:00:20.538Z,21.37
2018-09-02T08:02:50.313Z,21.30
2018-09-02T08:05:19.677Z,21.52
2018-09-02T08:07:48.796Z,20.48
2018-09-02T08:10:18.005Z,20.95
2018-09-02T08:12:47.392Z,21.95
2018-09-02T08:15:16.701Z,20.23
2018-09-02T08:17:45.921Z,20.48
2018-09-02T08:20:15.343Z,20.45
2018-09-02T08:22:44.601Z,19.25
2018-09-02T08:25:14.394Z,18.37
2018-09-02T08:27:44.233Z,19.42
2018-09-02T08:30:13.890Z,18.07
2018-09-02T08:32:43.223Z,18.92
2018-09-02T08:35:12.917Z,19.75
2018-09-02T08:37:42.666Z,20.27
2018-09-02T08:40:12.108Z,19.98
2018-09-02T08:42:41.819Z,20.35
2018-09-02T08:45:12.068Z,20.85
2018-09-02T08:47:41.842Z,18.98
2018-09-02T08:50:11.620Z,18.05
2018-09-02T08:52:46.652Z,17.00
2018-09-02T08:55:16.020Z,15.85
2018-09-02T08:57:46.864Z,15.65
2018-09-02T09:00:17.848Z,14.07
2018-09-02T09:02:49.036Z,13.98
2018-09-02T09:05:18.372Z,14.25
2018-09-02T09:07:48.096Z,13.30
2018-09-02T09:10:20.577Z,13.22
2018-09-02T09:12:50.953Z,14.78
2018-09-02T09:15:20.518Z,16.55
2018-09-02T09:17:50.454Z,19.25
2018-09-02T09:20:19.727Z,13.65
2018-09-02T09:22:49.573Z,14.00
2018-09-02T09:25:21.961Z,14.23
2018-09-02T09:27:53.274Z,15.00
2018-09-02T09:30:24.861Z,15.93
2018-09-02T09:32:56.799Z,18.60
2018-09-02T09:35:26.084Z,16.65
2018-09-02T09:37:55.621Z,16.57
2018-09-02T09:40:25.603Z,16.93
2018-09-02T09:42:54.926Z,20.05
2018-09-02T09:45:25.857Z,20.70
2018-09-02T09:47:55.309Z,18.90
2018-09-02T09:50:26.788Z,25.40
2018-09-02T09:52:56.361Z,21.25
2018-09-02T09:55:26.814Z,21.80
2018-09-02T09:57:56.959Z,20.68
2018-09-02T10:00:35.136Z,21.52
2018-09-02T10:03:04.856Z,22.05
2018-09-02T10:05:34.354Z,21.27
2018-09-02T10:08:10.352Z,23.57
2018-09-02T10:10:46.182Z,22.32
2018-09-02T10:13:18.117Z,24.70
2018-09-02T10:15:48.066Z,23.38
2018-09-02T10:18:24.471Z,22.95
2018-09-02T10:20:54.227Z,23.32
2018-09-02T10:23:23.732Z,23.95
2018-09-02T10:25:53.715Z,22.62
2018-09-02T10:28:25.180Z,22.90
2018-09-02T10:30:56.503Z,24.32
2018-09-02T10:33:26.091Z,23.85
2018-09-02T10:35:55.714Z,24.50
2018-09-02T10:38:29.306Z,23.67
2018-09-02T10:41:03.818Z,21.95
2018-09-02T10:43:33.988Z,22.85
2018-09-02T10:46:03.443Z,25.20
2018-09-02T10:48:34.892Z,25.05
2018-09-02T10:51:04.116Z,21.35
2018-09-02T10:53:34.066Z,22.05
2018-09-02T10:56:03.851Z,21.12
2018-09-02T10:58:34.783Z,20.82
2018-09-02T11:01:04.348Z,24.00
2018-09-02T11:03:34.065Z,22.17
2018-09-02T11:06:05.881Z,21.87
2018-09-02T11:08:35.139Z,23.50
2018-09-02T11:11:04.791Z,22.67
2018-09-02T11:13:34.173Z,24.07
2018-09-02T11:16:03.582Z,23.57
2018-09-02T11:18:32.924Z,22.62
2018-09-02T11:21:02.311Z,22.05
2018-09-02T11:23:32.736Z,22.65
2018-09-02T11:26:02.486Z,22.13
2018-09-02T11:28:34.339Z,22.50
2018-09-02T11:31:04.473Z,22.62
2018-09-02T11:33:35.456Z,22.22
2018-09-02T11:36:04.908Z,22.62
2018-09-02T11:38:36.780Z,22.98
2018-09-02T11:41:07.243Z,22.42
2018-09-02T11:43:37.125Z,23.12
2018-09-02T11:46:06.692Z,23.80
2018-09-02T11:48:35.978Z,24.63
2018-09-02T11:51:05.259Z,23.45
2018-09-02T11:53:34.840Z,21.37
2018-09-02T11:56:04.185Z,21.52
2018-09-02T11:58:35.187Z,20.60
2018-09-02T12:01:04.640Z,21.10
2018-09-02T12:03:34.094Z,20.17
2018-09-02T12:06:04.389Z,18.80
2018-09-02T12:08:35.327Z,20.25
2018-09-02T12:11:08.581Z,21.25
2018-09-02T12:13:37.723Z,19.17
2018-09-02T12:16:07.069Z,19.37
2018-09-02T12:18:36.830Z,17.77
2018-09-02T12:21:06.254Z,17.50
2018-09-02T12:23:39.994Z,17.95
2018-09-02T12:26:10.859Z,16.25
2018-09-02T12:28:40.176Z,16.55
2018-09-02T12:31:14.487Z,15.72
2018-09-02T12:33:44.606Z,15.60
2018-09-02T12:36:14.140Z,15.60
2018-09-02T12:38:43.717Z,14.55
2018-09-02T12:41:14.244Z,14.18
2018-09-02T12:43:43.585Z,14.03
2018-09-02T12:46:13.014Z,13.25
2018-09-02T12:48:42.715Z,12.88
2018-09-02T12:51:12.794Z,12.40
2018-09-02T12:53:42.379Z,12.35
2018-09-02T12:56:11.677Z,12.15
2018-09-02T12:58:41.020Z,11.55
2018-09-02T13:01:10.575Z,11.97
2018-09-02T13:03:40.332Z,11.35
2018-09-02T13:06:10.458Z,11.88
2018-09-02T13:08:39.779Z,11.73
2018-09-02T13:11:09.606Z,11.73
2018-09-02T13:13:38.944Z,11.88
2018-09-02T13:16:08.516Z,12.58
2018-09-02T13:18:37.822Z,11.53
2018-09-02T13:21:07.012Z,11.65
2018-09-02T13:23:36.251Z,11.57
2018-09-02T13:26:05.619Z,11.03
2018-09-02T13:28:35.252Z,11.90
2018-09-02T13:31:04.894Z,11.65
2018-09-02T13:33:34.246Z,11.00
2018-09-02T13:36:03.563Z,10.80
2018-09-02T13:38:32.825Z,10.03
2018-09-02T13:41:02.144Z,9.95
2018-09-02T13:43:31.602Z,11.10
2018-09-02T13:46:00.756Z,10.30
2018-09-02T13:48:30.241Z,10.63
2018-09-02T13:50:59.773Z,9.88
2018-09-02T13:53:29.079Z,9.33
2018-09-02T13:55:58.465Z,10.00
2018-09-02T13:58:27.995Z,10.05
2018-09-02T14:00:57.369Z,10.80
2018-09-02T14:03:26.510Z,9.45
2018-09-02T14:05:55.826Z,11.18
2018-09-02T14:08:25.723Z,11.80
2018-09-02T14:10:55.273Z,11.83
2018-09-02T14:13:25.087Z,11.60
2018-09-02T14:15:54.423Z,11.08
2018-09-02T14:18:23.793Z,10.75
2018-09-02T14:20:53.169Z,11.15
2018-09-02T14:23:22.842Z,11.93
2018-09-02T14:25:52.284Z,12.07
2018-09-02T14:28:21.732Z,12.03
2018-09-02T14:30:51.300Z,11.68
2018-09-02T14:33:20.767Z,9.75
2018-09-02T14:35:50.002Z,8.05
2018-09-02T14:38:19.273Z,6.85
2018-09-02T14:40:48.469Z,5.95
2018-09-02T14:43:17.640Z,5.95
2018-09-02T14:45:46.739Z,4.80
2018-09-02T14:48:16.119Z,3.87
2018-09-02T14:50:45.378Z,3.60
2018-09-02T14:53:15.443Z,3.77
2018-09-02T14:55:45.230Z,4.03
2018-09-02T14:58:16.764Z,5.15
2018-09-02T15:00:46.133Z,5.50
2018-09-02T15:03:15.235Z,5.50
2018-09-02T15:05:47.251Z,8.28
2018-09-02T15:08:19.118Z,8.43
2018-09-02T15:10:49.093Z,8.45
2018-09-02T15:13:18.264Z,7.20
2018-09-02T15:15:48.027Z,6.22
2018-09-02T15:18:17.229Z,7.08
2018-09-02T15:20:46.624Z,6.72
2018-09-02T15:23:22.313Z,7.80
2018-09-02T15:25:51.762Z,7.60
2018-09-02T15:28:26.614Z,7.92
2018-09-02T15:30:57.279Z,8.23
2018-09-02T15:33:26.484Z,10.03
2018-09-02T15:35:59.234Z,11.20
2018-09-02T15:38:31.902Z,12.40
2018-09-02T15:41:01.483Z,10.05
2018-09-02T15:43:30.581Z,9.85
2018-09-02T15:46:00.456Z,7.83
2018-09-02T15:48:29.869Z,8.15
2018-09-02T15:50:59.507Z,9.07
2018-09-02T15:53:29.501Z,8.27
2018-09-02T15:55:58.985Z,10.00
2018-09-02T15:58:28.206Z,34.27
2018-09-02T16:00:58.290Z,11.37
2018-09-02T16:03:27.859Z,11.17
2018-09-02T16:05:57.296Z,23.73
2018-09-02T16:08:27.139Z,13.43
2018-09-02T16:10:56.583Z,16.12
2018-09-02T16:13:26.995Z,21.80
2018-09-02T16:15:56.258Z,11.63
2018-09-02T16:18:25.736Z,11.73
2018-09-02T16:20:55.189Z,9.17
2018-09-02T16:23:24.457Z,8.37
2018-09-02T16:25:53.837Z,8.10
2018-09-02T16:28:23.405Z,8.60
2018-09-02T16:30:53.042Z,21.57
2018-09-02T16:33:22.401Z,11.20
2018-09-02T16:35:51.844Z,12.00
2018-09-02T16:38:21.581Z,14.97
2018-09-02T16:40:51.089Z,8.27
2018-09-02T16:43:20.545Z,5.37
2018-09-02T16:45:50.264Z,5.47
2018-09-02T16:48:19.416Z,5.53
2018-09-02T16:50:49.085Z,6.10
2018-09-02T16:53:18.742Z,6.17
2018-09-02T16:55:47.995Z,6.00
2018-09-02T16:58:17.323Z,5.90
2018-09-02T17:00:46.644Z,6.67
2018-09-02T17:03:16.311Z,6.33
2018-09-02T17:05:45.599Z,6.43
2018-09-02T17:08:14.797Z,8.03
2018-09-02T17:10:44.485Z,14.63
2018-09-02T17:13:14.125Z,8.57
2018-09-02T17:15:43.628Z,6.67
2018-09-02T17:18:12.993Z,6.43
2018-09-02T17:20:45.030Z,6.10
2018-09-02T17:23:14.830Z,7.47
2018-09-02T17:25:44.839Z,7.60
2018-09-02T17:28:14.890Z,8.70
2018-09-02T17:30:44.135Z,11.47
2018-09-02T17:33:14.235Z,18.33
2018-09-02T17:35:43.610Z,14.37
2018-09-02T17:38:13.369Z,14.27
2018-09-02T17:40:42.832Z,14.40
2018-09-02T17:43:12.334Z,14.30
2018-09-02T17:45:41.705Z,14.63
2018-09-02T17:48:11.392Z,15.83
2018-09-02T17:50:40.757Z,16.47
2018-09-02T17:53:10.301Z,15.93
2018-09-02T17:55:39.695Z,15.63
2018-09-02T17:58:09.261Z,14.43
2018-09-02T18:00:44.085Z,14.50
2018-09-02T18:03:13.520Z,14.87
2018-09-02T18:05:42.610Z,17.07
2018-09-02T18:08:12.226Z,17.23
2018-09-02T18:10:41.470Z,18.17
2018-09-02T18:13:10.779Z,17.77
2018-09-02T18:15:40.457Z,17.43
2018-09-02T18:18:10.113Z,18.37
2018-09-02T18:20:39.426Z,16.83
2018-09-02T18:23:08.904Z,16.10
2018-09-02T18:25:38.314Z,14.57
2018-09-02T18:28:10.313Z,15.10
2018-09-02T18:30:40.014Z,15.03
2018-09-02T18:33:09.202Z,13.50
2018-09-02T18:35:38.581Z,13.90
2018-09-02T18:38:08.303Z,14.03
2018-09-02T18:40:38.098Z,13.40
2018-09-02T18:43:08.889Z,13.53
2018-09-02T18:45:38.451Z,13.83
2018-09-02T18:48:08.540Z,14.67
2018-09-02T18:50:38.102Z,12.93
2018-09-02T18:53:07.421Z,13.10
2018-09-02T18:55:36.757Z,13.50
2018-09-02T18:58:06.168Z,14.67
2018-09-02T19:00:35.921Z,14.20
2018-09-02T19:03:05.935Z,14.70
2018-09-02T19:05:35.371Z,13.57
2018-09-02T19:08:04.998Z,13.57
2018-09-02T19:10:34.870Z,13.63
2018-09-02T19:13:04.098Z,15.10
2018-09-02T19:15:33.360Z,15.10
2018-09-02T19:18:03.152Z,19.80
2018-09-02T19:20:32.938Z,15.17
2018-09-02T19:23:02.559Z,17.97
2018-09-02T19:25:32.808Z,13.70
2018-09-02T19:28:02.359Z,14.30
2018-09-02T19:30:31.652Z,12.50
2018-09-02T19:33:01.306Z,12.27
2018-09-02T19:35:30.544Z,11.90
2018-09-02T19:37:59.904Z,12.37
2018-09-02T19:40:29.227Z,11.37
2018-09-02T19:42:58.828Z,12.73
2018-09-02T19:45:29.238Z,16.53
2018-09-02T19:47:59.165Z,19.47
2018-09-02T19:50:28.602Z,20.20
2018-09-02T19:52:58.209Z,20.83
2018-09-02T19:55:27.558Z,15.47
2018-09-02T19:57:57.150Z,14.37
2018-09-02T20:00:26.636Z,14.97
2018-09-02T20:02:55.940Z,13.70
2018-09-02T20:05:25.440Z,13.80
2018-09-02T20:07:55.009Z,13.07
2018-09-02T20:10:24.361Z,12.37
2018-09-02T20:12:53.568Z,13.23
2018-09-02T20:15:23.024Z,17.10
2018-09-02T20:17:52.385Z,17.93
2018-09-02T20:20:22.361Z,17.90
2018-09-02T20:22:51.812Z,18.17
2018-09-02T20:25:20.910Z,16.30
2018-09-02T20:27:50.050Z,15.07
2018-09-02T20:30:19.843Z,13.43
2018-09-02T20:32:49.507Z,12.90
2018-09-02T20:35:18.807Z,13.83
2018-09-02T20:37:48.699Z,14.80
2018-09-02T20:40:18.088Z,14.23
2018-09-02T20:42:47.356Z,14.30
2018-09-02T20:45:16.611Z,12.50
2018-09-02T20:47:46.368Z,14.03
2018-09-02T20:50:15.862Z,14.20
2018-09-02T20:52:45.931Z,14.93
2018-09-02T20:55:16.283Z,13.50
2018-09-02T20:57:45.734Z,14.10
2018-09-02T21:00:15.248Z,13.53
2018-09-02T21:02:44.612Z,13.57
2018-09-02T21:05:14.724Z,12.10
2018-09-02T21:07:44.469Z,12.33
2018-09-02T21:10:14.027Z,12.63
2018-09-02T21:12:43.671Z,12.10
2018-09-02T21:15:13.171Z,12.30
2018-09-02T21:17:42.487Z,12.03
2018-09-02T21:20:12.026Z,12.30
2018-09-02T21:22:42.153Z,13.40
2018-09-02T21:25:11.341Z,12.63
2018-09-02T21:27:40.744Z,13.50
2018-09-02T21:30:09.953Z,13.33
2018-09-02T21:32:39.507Z,13.43
2018-09-02T21:35:09.101Z,13.83
2018-09-02T21:37:39.273Z,13.30
2018-09-02T21:40:09.250Z,13.53
2018-09-02T21:42:38.525Z,12.67
2018-09-02T21:45:08.638Z,13.50
2018-09-02T21:47:38.225Z,13.27
2018-09-02T21:50:07.819Z,12.63
2018-09-02T21:52:38.745Z,13.30
2018-09-02T21:55:08.297Z,13.43
2018-09-02T21:57:37.882Z,15.83
2018-09-02T22:00:10.488Z,15.97
2018-09-02T22:02:39.732Z,14.27
2018-09-02T22:05:10.849Z,14.37
2018-09-02T22:07:40.596Z,13.70
2018-09-02T22:10:09.967Z,14.57
2018-09-02T22:12:39.195Z,14.93
2018-09-02T22:15:08.930Z,14.53
2018-09-02T22:17:38.277Z,14.60
2018-09-02T22:20:07.992Z,16.50
2018-09-02T22:22:37.203Z,17.10
2018-09-02T22:25:07.688Z,15.30
2018-09-02T22:27:37.747Z,16.00
2018-09-02T22:30:07.619Z,16.13
2018-09-02T22:32:36.924Z,16.40
2018-09-02T22:35:06.609Z,16.23
2018-09-02T22:37:35.881Z,13.87
2018-09-02T22:40:05.220Z,13.77
2018-09-02T22:42:34.969Z,14.80
2018-09-02T22:45:04.017Z,14.20
2018-09-02T22:47:33.688Z,14.90
2018-09-02T22:50:02.936Z,14.07
2018-09-02T22:52:32.363Z,14.80
2018-09-02T22:55:01.515Z,15.60
2018-09-02T22:57:31.023Z,14.23
2018-09-02T23:00:00.424Z,14.87
2018-09-02T23:02:29.532Z,14.97
2018-09-02T23:04:58.949Z,14.73
2018-09-02T23:07:28.421Z,14.83
2018-09-02T23:09:58.078Z,14.57
2018-09-02T23:12:27.545Z,14.13
2018-09-02T23:14:56.660Z,15.47
2018-09-02T23:17:26.064Z,15.23
2018-09-02T23:19:55.875Z,13.90
2018-09-02T23:22:25.320Z,13.93
2018-09-02T23:24:54.785Z,14.20
2018-09-02T23:27:24.411Z,13.47
2018-09-02T23:29:53.333Z,12.87
2018-09-02T23:32:22.688Z,13.93
2018-09-02T23:34:52.208Z,13.40
2018-09-02T23:37:21.332Z,14.40
2018-09-02T23:39:50.813Z,13.00
2018-09-02T23:42:20.086Z,14.37
2018-09-02T23:44:49.489Z,14.10
2018-09-02T23:47:18.879Z,14.87
2018-09-02T23:49:47.966Z,14.70
2018-09-02T23:52:17.243Z,16.03
2018-09-02T23:54:46.807Z,14.67
2018-09-02T23:57:16.089Z,15.87
2018-09-02T23:59:45.432Z,15.03
